Time;durP1;ratioP1;P1;durP2;ratioP2;P2;SDS_P1;SDS_P2;PMS_P1;PMS_P2;Temp;Humidity;BMP_temperature;BMP_pressure;BME280_temperature;BME280_humidity;BME280_pressure;Samples;Min_cycle;Max_cycle;Signal;HPM_P1;HPM_P2
2020/12/10 00:25:16;;;;;;;7.20;6.43;;;5.10;99.90;;;;;;5125089;22;20490;-85
2020/12/10 00:45:26;;;;;;;6.07;5.47;;;4.80;99.90;;;;;;5100984;22;20291;-87
2020/12/10 01:35:01;;;;;;;7.93;6.77;;;5.10;99.90;;;;;;5111940;22;20245;-88
2020/12/10 01:41:28;;;;;;;6.37;5.77;;;5.00;99.90;;;;;;5105191;22;20264;-88
2020/12/10 01:44:37;;;;;;;8.50;7.80;;;5.00;99.90;;;;;;5126961;22;20450;-87
2020/12/10 01:51:05;;;;;;;7.80;6.53;;;5.20;99.90;;;;;;5109206;22;20270;-86
2020/12/10 01:54:06;;;;;;;7.33;6.53;;;5.10;99.90;;;;;;5163569;22;20250;-86
2020/12/10 01:56:54;;;;;;;6.67;5.27;;;5.00;99.90;;;;;;5100562;22;20237;-87
2020/12/10 02:03:13;;;;;;;6.43;5.70;;;5.10;99.90;;;;;;5089082;22;20230;-89
2020/12/10 02:11:28;;;;;;;6.97;5.77;;;5.00;99.90;;;;;;5126352;28;20930;-86
2020/12/10 02:17:12;;;;;;;6.40;5.80;;;5.20;99.90;;;;;;5095334;28;20269;-87
2020/12/10 02:22:57;;;;;;;6.63;5.57;;;5.10;99.90;;;;;;5099297;22;20474;-88
2020/12/10 02:28:48;;;;;;;6.17;5.47;;;5.00;99.90;;;;;;5063410;28;20451;-89
2020/12/10 02:31:28;;;;;;;6.33;5.23;;;5.00;99.90;;;;;;5106201;28;20458;-87
2020/12/10 02:34:01;;;;;;;6.50;5.40;;;4.90;99.90;;;;;;5113952;28;20477;-87
2020/12/10 02:37:05;;;;;;;5.47;4.97;;;4.90;99.90;;;;;;5114279;28;20426;-91
2020/12/10 02:39:36;;;;;;;6.23;5.23;;;4.90;99.90;;;;;;5119585;22;20473;-87
2020/12/10 02:42:06;;;;;;;6.10;4.93;;;5.00;99.90;;;;;;5132425;28;20236;-86
2020/12/10 02:44:46;;;;;;;7.10;5.90;;;5.00;99.90;;;;;;5138025;28;20188;-88
2020/12/10 02:55:42;;;;;;;6.33;5.17;;;5.00;99.90;;;;;;5095331;28;20190;-89
2020/12/10 02:58:15;;;;;;;6.27;4.67;;;5.00;99.90;;;;;;5112167;22;20290;-88
2020/12/10 03:03:54;;;;;;;6.73;5.93;;;5.10;99.90;;;;;;5112671;22;20350;-87
2020/12/10 03:09:09;;;;;;;7.27;5.10;;;5.00;99.90;;;;;;5095048;28;20233;-88
2020/12/10 03:12:24;;;;;;;6.93;5.07;;;5.00;99.90;;;;;;5111551;28;20220;-88
2020/12/10 03:15:08;;;;;;;5.17;4.60;;;5.00;99.90;;;;;;5101719;22;20759;-88
2020/12/10 03:17:38;;;;;;;7.63;5.07;;;5.00;99.90;;;;;;5077961;28;20282;-86
2020/12/10 03:20:15;;;;;;;6.67;4.60;;;5.00;99.90;;;;;;5103763;22;20654;-87
2020/12/10 03:22:42;;;;;;;6.33;4.60;;;5.20;99.90;;;;;;5103898;22;20231;-87
2020/12/10 03:25:11;;;;;;;5.33;4.63;;;5.20;99.90;;;;;;5124378;28;20212;-86
2020/12/10 03:27:38;;;;;;;5.63;5.03;;;5.30;99.90;;;;;;5127908;28;20197;-89
2020/12/10 03:30:12;;;;;;;5.37;4.67;;;5.20;99.90;;;;;;5128899;28;20226;-88
2020/12/10 03:32:44;;;;;;;5.67;5.00;;;5.30;99.90;;;;;;5111753;28;20422;-86
2020/12/10 03:35:14;;;;;;;5.13;4.60;;;5.20;99.90;;;;;;5109564;28;20205;-89
2020/12/10 03:41:18;;;;;;;7.43;5.10;;;5.30;99.90;;;;;;5090567;28;20233;-90
2020/12/10 03:43:57;;;;;;;6.40;5.00;;;5.20;99.90;;;;;;5113107;28;20193;-88
2020/12/10 03:46:39;;;;;;;4.80;4.40;;;5.20;99.90;;;;;;5114257;28;20185;-86
2020/12/10 03:52:06;;;;;;;8.13;4.90;;;5.40;99.90;;;;;;5116601;28;20261;-86
2020/12/10 04:00:09;;;;;;;6.93;4.60;;;5.40;99.90;;;;;;5117353;28;20197;-87
2020/12/10 04:03:32;;;;;;;7.17;5.00;;;5.20;99.90;;;;;;5130158;22;21074;-88
2020/12/10 04:06:10;;;;;;;8.30;5.00;;;5.40;99.90;;;;;;5153842;22;20738;-87
2020/12/10 04:08:40;;;;;;;6.33;5.20;;;5.40;99.90;;;;;;5139111;28;20248;-87
2020/12/10 04:11:14;;;;;;;6.67;5.33;;;5.20;99.90;;;;;;5127327;28;20225;-87
2020/12/10 04:14:10;;;;;;;9.03;5.83;;;5.40;99.90;;;;;;5117620;28;20263;-87
2020/12/10 04:16:50;;;;;;;8.23;5.07;;;5.40;99.90;;;;;;5118047;28;20201;-87
2020/12/10 04:22:02;;;;;;;8.00;5.37;;;5.50;99.90;;;;;;5114184;28;20298;-87
2020/12/10 04:24:38;;;;;;;10.10;5.80;;;5.50;99.90;;;;;;5116001;28;20201;-87
2020/12/10 04:27:08;;;;;;;9.43;5.73;;;5.50;99.90;;;;;;5117053;28;20201;-87
2020/12/10 04:32:51;;;;;;;7.13;5.13;;;5.60;99.90;;;;;;5098553;28;20225;-89
2020/12/10 04:35:32;;;;;;;7.20;5.23;;;5.60;99.90;;;;;;5098724;28;20194;-88
2020/12/10 04:38:22;;;;;;;6.23;5.07;;;5.60;99.90;;;;;;5112623;22;20284;-87
2020/12/10 04:40:49;;;;;;;11.73;6.60;;;5.60;99.90;;;;;;5112006;28;20260;-92
2020/12/10 04:43:26;;;;;;;6.70;5.83;;;5.70;99.90;;;;;;5099363;28;20190;-87
2020/12/10 04:46:12;;;;;;;8.47;5.90;;;5.70;99.90;;;;;;5098950;28;20200;-88
2020/12/10 04:48:52;;;;;;;11.50;6.03;;;5.70;99.90;;;;;;5096929;28;20202;-87
2020/12/10 04:51:37;;;;;;;8.43;5.93;;;5.60;99.90;;;;;;5095862;28;20253;-88
2020/12/10 04:54:12;;;;;;;11.40;6.80;;;5.70;99.90;;;;;;5138988;22;20250;-86
2020/12/10 04:56:42;;;;;;;9.37;6.00;;;5.70;99.90;;;;;;5142185;27;20184;-87
2020/12/10 04:59:16;;;;;;;8.27;5.90;;;5.60;99.90;;;;;;5124673;28;20184;-89
2020/12/10 05:01:46;;;;;;;9.07;6.23;;;5.60;99.90;;;;;;5105076;28;20216;-88
2020/12/10 05:08:28;;;;;;;9.13;6.10;;;5.50;99.90;;;;;;5120799;28;20181;-86
2020/12/10 05:14:08;;;;;;;8.13;5.93;;;5.60;99.90;;;;;;5133872;22;20232;-87
2020/12/10 05:16:46;;;;;;;8.67;6.40;;;5.60;99.90;;;;;;5149848;22;20641;-85
2020/12/10 05:19:45;;;;;;;9.70;6.43;;;5.60;99.90;;;;;;5119349;22;20300;-86
2020/12/10 05:22:23;;;;;;;9.10;6.30;;;5.60;99.90;;;;;;5088842;28;20229;-86
2020/12/10 05:39:25;;;;;;;8.20;6.23;;;5.60;99.90;;;;;;5120275;28;20205;-86
2020/12/10 05:45:04;;;;;;;11.50;7.07;;;5.60;99.90;;;;;;5095413;28;20202;-87
2020/12/10 05:57:34;;;;;;;12.53;7.43;;;5.40;99.90;;;;;;5102062;28;20201;-92
2020/12/10 06:00:05;;;;;;;15.07;7.57;;;5.40;99.90;;;;;;5287632;22;20230;-96
2020/12/10 06:25:51;;;;;;;16.53;8.67;;;5.20;99.90;;;;;;5143381;22;20249;-96
2020/12/10 06:29:18;;;;;;;11.20;7.77;;;5.40;99.90;;;;;;5076380;28;20227;-96
2020/12/10 06:32:22;;;;;;;12.93;7.57;;;5.40;99.90;;;;;;5074451;28;20313;-96
2020/12/10 06:34:51;;;;;;;12.27;7.13;;;5.50;99.90;;;;;;5072456;28;20277;-96
2020/12/10 06:43:08;;;;;;;14.23;8.50;;;5.60;99.90;;;;;;5441235;22;20236;-96
2020/12/10 06:45:36;;;;;;;15.03;7.70;;;5.50;99.90;;;;;;5118698;28;20185;-95
2020/12/10 06:48:04;;;;;;;37.30;8.83;;;5.70;99.90;;;;;;5118634;28;20185;-96
2020/12/10 06:53:31;;;;;;;14.70;8.00;;;5.50;99.90;;;;;;5638563;22;20241;-96
2020/12/10 07:00:09;;;;;;;15.60;7.37;;;5.50;99.90;;;;;;5790594;22;20972;-95
2020/12/10 07:16:56;;;;;;;11.53;7.53;;;5.70;99.90;;;;;;5371301;22;20231;-96
2020/12/10 07:19:24;;;;;;;13.20;7.83;;;5.60;99.90;;;;;;5037110;28;20191;-96
2020/12/10 07:30:41;;;;;;;12.10;6.97;;;5.60;99.90;;;;;;5781591;22;20253;-94
2020/12/10 08:35:43;;;;;;;13.17;7.03;;;6.00;99.90;;;;;;4750024;22;21669;-97
2020/12/10 08:38:09;;;;;;;7.73;5.80;;;6.10;99.90;;;;;;4997344;28;20228;-94
2020/12/10 09:26:38;;;;;;;5.10;4.47;;;6.40;99.90;;;;;;5008597;28;20208;-96
2020/12/10 09:31:45;;;;;;;16.07;5.00;;;6.40;99.90;;;;;;5008085;28;20235;-96
2020/12/10 09:34:15;;;;;;;6.27;4.83;;;6.40;99.90;;;;;;5008691;28;20284;-96
2020/12/10 09:36:46;;;;;;;8.10;4.70;;;6.40;99.90;;;;;;4994185;28;20267;-96
2020/12/10 09:39:13;;;;;;;8.00;4.97;;;6.60;99.90;;;;;;5007045;28;20208;-96
2020/12/10 09:48:13;;;;;;;6.07;5.10;;;6.70;99.90;;;;;;5002261;23;20251;-96
2020/12/10 09:50:45;;;;;;;6.63;4.93;;;6.80;99.90;;;;;;4989497;28;20256;-96
2020/12/10 09:53:20;;;;;;;8.10;5.07;;;6.70;99.90;;;;;;4971054;29;20218;-96
2020/12/10 09:56:12;;;;;;;16.07;5.70;;;6.80;99.90;;;;;;4970692;28;20197;-96
2020/12/10 09:58:42;;;;;;;10.03;5.40;;;6.80;99.90;;;;;;4949664;29;20211;-96
2020/12/10 10:01:16;;;;;;;7.20;5.67;;;6.80;99.90;;;;;;4949389;29;20230;-96
2020/12/10 10:03:44;;;;;;;6.10;5.50;;;7.00;99.90;;;;;;4978607;23;20236;-96
2020/12/10 10:06:17;;;;;;;6.83;5.30;;;7.20;99.90;;;;;;5006202;28;20235;-96
2020/12/10 10:08:47;;;;;;;7.57;5.17;;;7.20;99.90;;;;;;4996162;28;20201;-94
2020/12/10 10:11:14;;;;;;;10.03;5.07;;;7.20;99.90;;;;;;4995645;28;20722;-94
2020/12/10 10:13:41;;;;;;;8.00;5.67;;;7.50;99.90;;;;;;4996786;28;20196;-96
2020/12/10 10:16:07;;;;;;;7.80;5.17;;;7.40;99.90;;;;;;4996533;28;20238;-94
2020/12/10 10:18:34;;;;;;;10.50;5.33;;;7.40;99.90;;;;;;4996192;28;20547;-94
2020/12/10 10:21:01;;;;;;;12.30;6.73;;;7.20;99.90;;;;;;4995340;28;20434;-94
2020/12/10 10:23:28;;;;;;;9.50;5.27;;;7.30;99.90;;;;;;4995753;28;20626;-94
2020/12/10 10:25:55;;;;;;;9.40;5.33;;;7.40;99.90;;;;;;4995973;28;20208;-94
2020/12/10 10:28:22;;;;;;;8.47;5.87;;;7.60;99.90;;;;;;4996367;28;20206;-95
2020/12/10 10:30:48;;;;;;;8.30;4.93;;;7.50;99.90;;;;;;4995905;28;20315;-94
2020/12/10 10:33:17;;;;;;;13.93;5.43;;;7.60;99.90;;;;;;5005681;28;20227;-94
2020/12/10 10:35:43;;;;;;;16.20;5.03;;;7.60;99.90;;;;;;4996279;28;20209;-93
2020/12/10 10:38:10;;;;;;;7.10;5.53;;;7.60;99.90;;;;;;4995606;28;20272;-95
2020/12/10 10:40:39;;;;;;;7.83;4.53;;;7.70;99.90;;;;;;4995738;28;20239;-95
2020/12/10 10:43:06;;;;;;;6.77;4.27;;;7.60;99.90;;;;;;4996245;28;20247;-95
2020/12/10 10:45:33;;;;;;;7.73;4.83;;;7.50;99.90;;;;;;4996760;28;20214;-95
2020/12/10 10:47:59;;;;;;;7.70;4.43;;;7.30;99.90;;;;;;4995977;28;20214;-95
2020/12/10 10:50:25;;;;;;;4.27;3.87;;;7.40;99.90;;;;;;4995022;28;20768;-95
2020/12/10 10:52:52;;;;;;;6.17;4.27;;;7.50;99.90;;;;;;4994956;28;20216;-95
2020/12/10 10:55:18;;;;;;;5.07;4.20;;;7.60;99.90;;;;;;4994852;28;20195;-95
2020/12/10 10:57:45;;;;;;;5.03;3.93;;;7.50;99.90;;;;;;4995185;28;20193;-95
2020/12/10 11:00:12;;;;;;;6.10;4.23;;;7.50;99.90;;;;;;4995000;28;20232;-94
2020/12/10 11:02:38;;;;;;;6.47;4.17;;;7.50;99.90;;;;;;4994719;28;20263;-95
2020/12/10 11:05:05;;;;;;;7.40;4.37;;;7.50;99.90;;;;;;4994837;28;20333;-95
2020/12/10 11:07:31;;;;;;;8.20;3.83;;;7.30;99.90;;;;;;4995908;28;20617;-95
2020/12/10 11:09:58;;;;;;;6.47;4.50;;;7.30;99.90;;;;;;5004492;28;20304;-94
2020/12/10 11:12:26;;;;;;;5.03;4.53;;;7.40;99.90;;;;;;5013182;28;20228;-95
2020/12/10 11:14:52;;;;;;;9.20;4.27;;;7.40;99.90;;;;;;5002629;28;20212;-96
2020/12/10 11:17:20;;;;;;;5.47;3.90;;;7.40;99.90;;;;;;4995707;28;20207;-95
2020/12/10 11:19:46;;;;;;;8.17;4.47;;;7.50;99.90;;;;;;4995230;28;20208;-95
2020/12/10 11:22:12;;;;;;;11.33;4.33;;;7.50;99.90;;;;;;4994829;28;20295;-95
2020/12/10 11:24:39;;;;;;;5.10;4.60;;;7.60;99.90;;;;;;4994877;28;20288;-95
2020/12/10 11:27:05;;;;;;;6.67;4.40;;;7.80;99.90;;;;;;4995490;28;20208;-95
2020/12/10 11:29:32;;;;;;;5.50;4.00;;;7.90;99.90;;;;;;4995561;28;20295;-95
2020/12/10 11:31:58;;;;;;;7.57;5.03;;;7.90;99.90;;;;;;4977435;28;20239;-93
2020/12/10 11:34:25;;;;;;;5.90;4.97;;;8.00;99.90;;;;;;4995315;28;20223;-94
2020/12/10 11:36:52;;;;;;;31.57;6.33;;;8.10;99.90;;;;;;4994742;28;20276;-93
2020/12/10 11:39:18;;;;;;;8.83;4.83;;;8.10;99.90;;;;;;4994756;28;20196;-93
2020/12/10 11:41:45;;;;;;;8.37;5.00;;;8.30;99.90;;;;;;4994815;28;20237;-93
2020/12/10 11:44:11;;;;;;;6.83;5.37;;;8.40;99.90;;;;;;4994593;28;20224;-96
2020/12/10 11:46:38;;;;;;;7.50;6.80;;;8.40;99.90;;;;;;4994869;28;20236;-95
2020/12/10 11:49:05;;;;;;;6.70;5.67;;;8.20;99.90;;;;;;4994818;28;20215;-95
2020/12/10 11:51:33;;;;;;;15.97;6.30;;;8.30;99.90;;;;;;4995015;28;20248;-96
2020/12/10 11:53:59;;;;;;;17.57;7.03;;;8.10;99.90;;;;;;4995530;28;20205;-95
2020/12/10 11:56:25;;;;;;;8.90;5.87;;;8.00;99.90;;;;;;4994717;28;20284;-95
2020/12/10 11:58:52;;;;;;;9.07;6.20;;;7.80;99.90;;;;;;4995135;28;20201;-95
2020/12/10 12:01:18;;;;;;;10.27;6.63;;;7.60;99.90;;;;;;4995291;28;20601;-95
2020/12/10 12:03:45;;;;;;;10.67;6.33;;;7.80;99.90;;;;;;4994870;28;20233;-95
2020/12/10 12:06:11;;;;;;;8.37;6.10;;;7.80;99.90;;;;;;4994953;28;20208;-95
2020/12/10 12:08:38;;;;;;;10.23;6.37;;;8.00;99.90;;;;;;4997038;28;20215;-95
2020/12/10 12:11:11;;;;;;;7.70;6.73;;;8.30;99.90;;;;;;5003583;28;20229;-96
2020/12/10 12:13:38;;;;;;;17.33;6.93;;;8.30;99.90;;;;;;4981938;28;20239;-95
2020/12/10 12:16:06;;;;;;;7.77;6.50;;;8.40;99.90;;;;;;4998145;28;20231;-96
2020/12/10 12:18:33;;;;;;;9.87;7.13;;;8.10;99.90;;;;;;4999431;28;20209;-95
2020/12/10 12:20:59;;;;;;;13.00;7.00;;;7.90;99.90;;;;;;5000808;28;20235;-96
2020/12/10 12:23:26;;;;;;;7.87;6.87;;;8.00;99.90;;;;;;5000852;28;20188;-96
2020/12/10 12:38:59;;;;;;;10.53;6.83;;;7.80;99.90;;;;;;5035909;23;20267;-94
2020/12/10 13:13:21;;;;;;;9.53;7.10;;;7.40;99.90;;;;;;5041690;23;20229;-96
2020/12/10 13:20:13;;;;;;;8.67;6.73;;;7.20;99.90;;;;;;4999228;28;20201;-96
2020/12/10 13:22:49;;;;;;;11.53;6.80;;;7.20;99.90;;;;;;4978700;28;20224;-95
2020/12/10 13:25:19;;;;;;;12.17;7.33;;;7.30;99.90;;;;;;4970820;28;20245;-95
2020/12/10 13:27:46;;;;;;;22.13;8.10;;;7.20;99.90;;;;;;4970520;28;20220;-96
2020/12/10 13:30:12;;;;;;;18.23;7.30;;;7.20;99.90;;;;;;4962898;29;20284;-96
2020/12/10 13:32:39;;;;;;;9.70;6.93;;;7.10;99.90;;;;;;4964906;29;20206;-96
2020/12/10 13:35:08;;;;;;;14.30;7.33;;;7.10;99.90;;;;;;4968617;29;20627;-95
2020/12/10 13:37:37;;;;;;;11.10;7.73;;;7.10;99.90;;;;;;4962880;29;20218;-96
2020/12/10 13:40:05;;;;;;;9.33;6.50;;;7.10;99.90;;;;;;4960285;29;20237;-95
2020/12/10 13:42:31;;;;;;;13.77;6.90;;;7.10;99.90;;;;;;4961882;29;20234;-96
2020/12/10 13:44:58;;;;;;;7.77;6.63;;;7.20;99.90;;;;;;4960529;29;20210;-95
2020/12/10 13:47:25;;;;;;;11.20;6.87;;;7.10;99.90;;;;;;4959710;29;20636;-96
2020/12/10 13:49:51;;;;;;;10.80;6.43;;;7.20;99.90;;;;;;4960210;29;20301;-96
2020/12/10 13:52:18;;;;;;;11.17;7.63;;;7.20;99.90;;;;;;4959943;29;20286;-95
2020/12/10 13:54:44;;;;;;;9.63;6.47;;;7.20;99.90;;;;;;4958827;29;20244;-96
2020/12/10 13:57:12;;;;;;;8.30;6.53;;;7.20;99.90;;;;;;4959121;29;20526;-96
2020/12/10 13:59:38;;;;;;;8.60;6.63;;;7.20;99.90;;;;;;4960576;29;20236;-96
2020/12/10 14:02:07;;;;;;;8.47;6.87;;;7.00;99.90;;;;;;4959042;29;20253;-96
2020/12/10 14:04:34;;;;;;;14.87;6.80;;;7.00;99.90;;;;;;4959997;29;20209;-96
2020/12/10 14:07:00;;;;;;;12.70;7.40;;;6.90;99.90;;;;;;4958602;29;20205;-96
2020/12/10 14:09:27;;;;;;;11.13;8.40;;;6.80;99.90;;;;;;4956685;29;20927;-96
2020/12/10 14:11:58;;;;;;;10.23;7.10;;;7.10;99.90;;;;;;4959288;28;20241;-96
2020/12/10 14:14:26;;;;;;;8.63;6.77;;;7.10;99.90;;;;;;4960074;29;20217;-95
2020/12/10 14:16:52;;;;;;;15.10;7.10;;;7.10;99.90;;;;;;4958831;29;20208;-96
2020/12/10 14:19:19;;;;;;;8.30;6.27;;;7.20;99.90;;;;;;4959790;28;20539;-96
2020/12/10 14:21:45;;;;;;;13.13;6.40;;;7.00;99.90;;;;;;4957982;29;20233;-96
2020/12/10 14:24:12;;;;;;;11.83;6.70;;;7.10;99.90;;;;;;4957791;29;20257;-96
2020/12/10 14:26:50;;;;;;;14.10;6.63;;;7.10;99.90;;;;;;4962442;29;20216;-96
2020/12/10 14:29:28;;;;;;;9.30;6.63;;;7.00;99.90;;;;;;5007145;23;20238;-96
2020/12/10 14:50:58;;;;;;;8.67;6.20;;;6.50;99.90;;;;;;5016358;28;20216;-95
2020/12/10 15:15:28;;;;;;;9.97;6.10;;;6.10;99.90;;;;;;4926586;29;20270;-94
2020/12/10 15:17:55;;;;;;;10.60;6.23;;;6.00;99.90;;;;;;4920074;28;20217;-95
2020/12/10 15:20:22;;;;;;;66.60;13.57;;;6.10;99.90;;;;;;4995269;28;20235;-94
2020/12/10 15:22:48;;;;;;;20.10;7.30;;;6.00;99.90;;;;;;4995025;28;20262;-93
2020/12/10 15:25:15;;;;;;;22.47;7.10;;;5.90;99.90;;;;;;4995528;28;20209;-95
2020/12/10 15:27:41;;;;;;;11.50;6.60;;;5.80;99.90;;;;;;4995461;28;20216;-94
2020/12/10 15:30:08;;;;;;;9.83;6.77;;;5.70;99.90;;;;;;4998406;28;20599;-96
2020/12/10 15:32:35;;;;;;;7.50;5.43;;;5.70;99.90;;;;;;4996227;28;20212;-93
2020/12/10 15:35:03;;;;;;;12.93;7.00;;;5.60;99.90;;;;;;4998532;28;20217;-96
2020/12/10 15:37:30;;;;;;;9.07;6.10;;;5.60;99.90;;;;;;4995159;28;20209;-94
2020/12/10 15:39:57;;;;;;;11.90;6.80;;;5.60;99.90;;;;;;4983444;28;20201;-96
2020/12/10 15:42:23;;;;;;;11.57;6.73;;;5.50;99.90;;;;;;4998034;28;20232;-95
2020/12/10 15:44:49;;;;;;;11.33;7.67;;;5.70;99.90;;;;;;5000211;28;20205;-96
2020/12/10 15:47:19;;;;;;;11.70;7.10;;;5.60;99.90;;;;;;4999834;28;20214;-96
2020/12/10 15:49:47;;;;;;;9.63;6.47;;;5.50;99.90;;;;;;4999664;28;20212;-95
2020/12/10 15:52:13;;;;;;;9.33;6.60;;;5.50;99.90;;;;;;4999779;28;20204;-94
2020/12/10 15:54:40;;;;;;;14.63;7.00;;;5.40;99.90;;;;;;5000290;28;20235;-94
2020/12/10 15:57:06;;;;;;;13.13;7.23;;;5.30;99.90;;;;;;5001725;28;20209;-96
2020/12/10 15:59:33;;;;;;;16.70;7.27;;;5.30;99.90;;;;;;5003502;28;20208;-96
2020/12/10 16:01:59;;;;;;;114.10;11.37;;;5.20;99.90;;;;;;5002898;28;20749;-96
2020/12/10 16:04:26;;;;;;;12.63;7.63;;;5.10;99.90;;;;;;5003836;28;20282;-96
2020/12/10 16:06:54;;;;;;;23.10;7.90;;;5.20;99.90;;;;;;5004283;28;20228;-95
2020/12/10 16:09:20;;;;;;;11.70;7.90;;;5.10;99.90;;;;;;5003634;28;20239;-95
2020/12/10 16:11:47;;;;;;;13.63;9.63;;;5.10;99.90;;;;;;5002235;28;20445;-96
2020/12/10 16:30:27;;;;;;;19.27;9.50;;;4.80;99.90;;;;;;5115765;23;20518;-85
2020/12/10 16:44:58;;;;;;;13.27;8.20;;;4.60;99.90;;;;;;5057205;23;20489;-85
2020/12/10 16:50:23;;;;;;;15.53;8.93;;;4.40;99.90;;;;;;5003783;28;20477;-85
2020/12/10 16:55:44;;;;;;;16.33;10.43;;;4.40;99.90;;;;;;5040700;23;20513;-85
2020/12/10 16:58:14;;;;;;;20.23;9.47;;;4.20;99.90;;;;;;5001454;28;20482;-85
2020/12/10 17:01:08;;;;;;;15.17;9.40;;;4.10;99.90;;;;;;5017806;28;20456;-84
2020/12/10 17:03:47;;;;;;;16.87;9.87;;;4.00;99.90;;;;;;5016853;28;20496;-85
2020/12/10 17:06:18;;;;;;;16.30;10.13;;;4.10;99.90;;;;;;5016271;28;20454;-85
2020/12/10 17:08:56;;;;;;;15.60;9.43;;;4.00;99.90;;;;;;5016059;28;20458;-85
2020/12/10 17:11:31;;;;;;;17.00;11.60;;;4.10;99.90;;;;;;5012075;28;20462;-85
2020/12/10 17:14:00;;;;;;;15.17;10.03;;;4.10;99.90;;;;;;5007748;28;20422;-86
2020/12/10 17:16:41;;;;;;;17.97;10.10;;;4.00;99.90;;;;;;5016821;28;20785;-85
2020/12/10 17:19:36;;;;;;;16.73;10.03;;;4.10;99.90;;;;;;5015830;28;20430;-85
2020/12/10 17:25:11;;;;;;;16.43;10.83;;;3.90;99.90;;;;;;5014014;28;20443;-85
2020/12/10 17:27:46;;;;;;;17.47;11.10;;;4.00;99.90;;;;;;5014807;28;20441;-85
2020/12/10 17:30:21;;;;;;;16.77;10.27;;;4.00;99.90;;;;;;5015502;28;20462;-85
2020/12/10 17:32:56;;;;;;;15.43;10.73;;;3.90;99.90;;;;;;5014858;28;20454;-85
2020/12/10 17:35:29;;;;;;;18.03;11.77;;;3.90;99.90;;;;;;5015468;28;20473;-85
2020/12/10 17:38:06;;;;;;;16.03;10.90;;;3.80;99.90;;;;;;5016604;28;20457;-85
2020/12/10 17:40:59;;;;;;;15.37;10.73;;;3.80;99.90;;;;;;5012378;28;20500;-85
2020/12/10 17:43:30;;;;;;;14.43;10.47;;;3.80;99.90;;;;;;4997651;28;20861;-85
2020/12/10 17:46:09;;;;;;;17.03;10.73;;;3.80;99.90;;;;;;5014157;28;20466;-85
2020/12/10 17:48:57;;;;;;;16.53;10.83;;;3.90;99.90;;;;;;4997485;28;20505;-85
2020/12/10 17:54:20;;;;;;;15.60;10.03;;;3.80;99.90;;;;;;5014440;28;20457;-85
2020/12/10 17:57:30;;;;;;;13.27;10.33;;;3.80;99.90;;;;;;5042269;23;20510;-85
2020/12/10 18:00:02;;;;;;;13.43;10.13;;;3.80;99.90;;;;;;4994979;28;20419;-86
2020/12/10 18:02:32;;;;;;;21.43;12.77;;;3.90;99.90;;;;;;5001158;23;20494;-85
2020/12/10 18:05:07;;;;;;;14.27;10.27;;;3.80;99.90;;;;;;5014886;23;20905;-85
2020/12/10 18:11:10;;;;;;;13.70;9.93;;;3.80;99.90;;;;;;5054452;23;20494;-85
2020/12/10 18:13:45;;;;;;;56.73;12.97;;;3.80;99.90;;;;;;4994794;28;20451;-85
2020/12/10 18:16:23;;;;;;;17.60;9.83;;;3.80;99.90;;;;;;4994726;28;20522;-85
2020/12/10 18:19:04;;;;;;;14.83;9.63;;;3.80;99.90;;;;;;4994877;28;20459;-85
2020/12/10 18:21:46;;;;;;;15.07;10.27;;;3.70;99.90;;;;;;5009771;28;20463;-85
2020/12/10 18:24:23;;;;;;;12.87;9.63;;;3.80;99.90;;;;;;4978195;28;20457;-85
2020/12/10 18:27:06;;;;;;;14.40;9.73;;;3.80;99.90;;;;;;5030964;23;20493;-85
2020/12/10 18:29:42;;;;;;;13.97;10.17;;;3.90;99.90;;;;;;5014718;28;20447;-86
2020/12/10 18:38:45;;;;;;;19.70;11.20;;;4.00;99.90;;;;;;4995228;28;20467;-85
2020/12/10 18:41:18;;;;;;;16.47;10.97;;;4.00;99.90;;;;;;4984979;28;20500;-85
2020/12/10 18:43:50;;;;;;;19.00;10.57;;;3.70;99.90;;;;;;4958927;29;20479;-85
2020/12/10 19:01:37;;;;;;;14.33;10.43;;;4.00;99.90;;;;;;5014131;28;20456;-86
2020/12/10 19:13:25;;;;;;;16.57;12.00;;;3.70;99.90;;;;;;1646465;23;21338;-84
2020/12/10 19:38:56;;;;;;;16.63;12.93;;;3.50;99.90;;;;;;5087861;23;20553;-84
